Aviation Digital Data Service (ADDS)

Output produced by METARs form (1426 UTC 10 July 2020)
found at http://www.aviationweather.gov/metar/data/
 
KGNV 101353Z VRB06KT 10SM CLR 31/26 A2999 RMK AO2 SLP150 T03060256
KGNV 101158Z 1012/1112 30007KT P6SM VCSH SCT030 BKN060 
     FM101800 27010KT P6SM VCTS SCT050CB SCT250 
     TEMPO 1018/1022 VRB15G25KT 3SM +TSRA BR SCT025 BKN040CB BKN100 
     FM102200 27007KT P6SM VCTS SCT030 BKN040CB BKN100 
     PROB30 1022/1102 VRB15G25KT 3SM +TSRA BR SCT025 BKN040CB BKN100 
     FM110300 24003KT P6SM VCSH SCT050 BKN100 OVC250